createdAt,value
2019-05-21T00:00:58.790Z,13.13
2019-05-21T00:06:06.220Z,13.13
2019-05-21T00:11:13.794Z,13.13
2019-05-21T00:16:21.256Z,13.23
2019-05-21T00:21:28.709Z,13.06
2019-05-21T00:26:37.141Z,13.01
2019-05-21T00:32:37.842Z,13.05
2019-05-21T00:38:38.715Z,12.89
2019-05-21T00:43:59.137Z,12.57
2019-05-21T00:49:06.554Z,12.37
2019-05-21T00:54:13.966Z,12.47
2019-05-21T00:59:24.202Z,12.04
2019-05-21T01:04:31.663Z,12.07
2019-05-21T01:09:38.961Z,12.16
2019-05-21T01:14:46.461Z,12.16
2019-05-21T01:19:53.800Z,11.83
2019-05-21T01:25:01.209Z,11.70
2019-05-21T01:30:10.261Z,11.61
2019-05-21T01:35:17.772Z,11.59
2019-05-21T01:40:25.161Z,11.89
2019-05-21T01:45:32.689Z,11.70
2019-05-21T01:50:40.189Z,11.96
2019-05-21T01:55:47.617Z,11.93
2019-05-21T02:00:54.963Z,11.71
2019-05-21T02:06:02.322Z,11.47
2019-05-21T02:11:09.827Z,11.56
2019-05-21T02:16:17.295Z,11.64
2019-05-21T02:21:24.727Z,11.62
2019-05-21T02:26:32.075Z,11.70
2019-05-21T02:31:39.483Z,11.83
2019-05-21T02:36:46.879Z,11.61
2019-05-21T02:41:54.330Z,11.70
2019-05-21T02:47:01.829Z,11.82
2019-05-21T02:52:09.227Z,11.69
2019-05-21T02:57:16.740Z,11.68
2019-05-21T03:02:39.025Z,11.55
2019-05-21T03:07:46.450Z,11.35
2019-05-21T03:12:53.964Z,11.52
2019-05-21T03:18:01.296Z,11.59
2019-05-21T03:23:08.693Z,11.28
2019-05-21T03:28:16.154Z,11.30
2019-05-21T03:33:23.615Z,11.33
2019-05-21T03:38:31.123Z,11.03
2019-05-21T03:43:38.612Z,11.30
2019-05-21T03:48:46.449Z,11.08
2019-05-21T03:53:53.771Z,11.22
2019-05-21T03:59:01.212Z,11.20
2019-05-21T04:04:08.637Z,11.14
2019-05-21T04:09:15.962Z,11.20
2019-05-21T04:14:40.267Z,11.10
2019-05-21T04:19:48.344Z,11.02
2019-05-21T04:24:55.731Z,11.12
2019-05-21T04:30:03.206Z,11.04
2019-05-21T04:35:10.761Z,11.12
2019-05-21T04:40:18.381Z,11.19
2019-05-21T04:45:25.837Z,11.14
2019-05-21T04:50:33.232Z,11.02
2019-05-21T04:55:41.578Z,11.14
2019-05-21T05:00:48.968Z,11.31
2019-05-21T05:05:57.349Z,11.26
2019-05-21T05:11:04.821Z,11.17
2019-05-21T05:16:12.218Z,11.58
2019-05-21T05:21:19.547Z,11.79
2019-05-21T05:26:26.891Z,11.54
2019-05-21T05:31:34.318Z,11.80
2019-05-21T05:36:41.638Z,11.91
2019-05-21T05:41:49.066Z,11.99
2019-05-21T05:46:56.500Z,12.24
2019-05-21T05:52:03.928Z,12.43
2019-05-21T05:57:11.977Z,12.60
2019-05-21T06:02:19.445Z,12.76
2019-05-21T06:07:26.846Z,13.02
2019-05-21T06:12:34.435Z,13.16
2019-05-21T06:17:41.830Z,13.27
2019-05-21T06:22:49.267Z,13.53
2019-05-21T06:27:56.728Z,13.80
2019-05-21T06:33:04.130Z,13.99
2019-05-21T06:38:17.696Z,14.20
2019-05-21T06:43:22.375Z,14.41
2019-05-21T06:48:29.703Z,14.52
2019-05-21T06:53:37.210Z,14.67
2019-05-21T06:58:44.748Z,14.75
2019-05-21T07:03:52.255Z,15.01
2019-05-21T07:08:59.609Z,15.29
2019-05-21T07:14:07.180Z,15.50
2019-05-21T07:19:14.537Z,15.76
2019-05-21T07:24:21.941Z,15.87
2019-05-21T07:29:29.451Z,15.82
2019-05-21T07:34:36.880Z,16.15
2019-05-21T07:39:44.308Z,16.39
2019-05-21T07:44:51.660Z,16.63
2019-05-21T07:49:59.072Z,16.84
2019-05-21T07:55:07.318Z,17.07
2019-05-21T08:00:17.005Z,17.15
2019-05-21T08:05:24.571Z,17.44
2019-05-21T08:10:31.998Z,17.64
2019-05-21T08:15:39.457Z,17.49
2019-05-21T08:20:46.859Z,17.44
2019-05-21T08:25:54.251Z,17.32
2019-05-21T08:31:02.461Z,17.27
2019-05-21T08:36:10.001Z,17.33
2019-05-21T08:41:17.382Z,17.57
2019-05-21T08:46:24.773Z,17.68
2019-05-21T08:51:32.370Z,17.87
2019-05-21T08:56:40.137Z,17.90
2019-05-21T09:01:47.711Z,18.00
2019-05-21T09:06:55.154Z,18.08
2019-05-21T09:12:02.600Z,17.97
2019-05-21T09:17:10.029Z,18.04
2019-05-21T09:22:17.430Z,18.35
2019-05-21T09:27:24.870Z,19.15
2019-05-21T09:38:37.878Z,19.93
2019-05-21T09:43:45.314Z,20.25
2019-05-21T09:48:55.563Z,20.58
2019-05-21T09:54:01.806Z,21.06
2019-05-21T09:59:28.623Z,21.20
2019-05-21T10:04:36.008Z,21.43
2019-05-21T10:09:43.416Z,21.66
2019-05-21T10:14:51.933Z,21.88
2019-05-21T10:19:59.333Z,21.54
2019-05-21T10:25:07.099Z,21.82
2019-05-21T10:30:14.885Z,22.39
2019-05-21T10:35:22.399Z,22.68
2019-05-21T10:40:29.797Z,22.45
2019-05-21T10:45:36.780Z,22.19
2019-05-21T10:50:44.126Z,22.46
2019-05-21T10:55:51.544Z,22.51
2019-05-21T11:01:06.175Z,22.57
2019-05-21T11:06:14.404Z,22.97
2019-05-21T11:11:21.949Z,23.11
2019-05-21T11:16:29.348Z,23.79
2019-05-21T11:21:36.724Z,24.38
2019-05-21T11:26:44.146Z,25.12
2019-05-21T11:31:57.193Z,24.79
2019-05-21T11:37:00.505Z,24.71
2019-05-21T11:42:08.026Z,24.85
2019-05-21T11:48:03.313Z,24.80
2019-05-21T11:52:26.417Z,24.49
2019-05-21T11:57:34.083Z,24.56
2019-05-21T12:02:42.266Z,24.98
2019-05-21T12:07:49.891Z,24.96
2019-05-21T12:12:57.448Z,24.84
2019-05-21T12:18:04.988Z,25.40
2019-05-21T12:23:12.437Z,25.44
2019-05-21T12:28:19.862Z,26.43
2019-05-21T12:33:27.425Z,27.69
2019-05-21T12:38:35.727Z,28.19
2019-05-21T12:43:43.257Z,29.01
2019-05-21T12:48:53.834Z,29.56
2019-05-21T12:54:01.418Z,30.02
2019-05-21T12:59:08.776Z,30.38
2019-05-21T13:04:16.416Z,29.87
2019-05-21T13:09:32.950Z,28.62
2019-05-21T13:14:33.488Z,28.27
2019-05-21T13:19:41.156Z,28.64
2019-05-21T13:24:49.195Z,29.81
2019-05-21T13:29:56.840Z,31.33
2019-05-21T13:35:04.667Z,32.00
2019-05-21T13:40:14.056Z,31.62
2019-05-21T13:45:21.732Z,31.47
2019-05-21T13:50:29.215Z,32.14
2019-05-21T13:55:36.548Z,32.62
2019-05-21T14:00:48.901Z,31.65
2019-05-21T14:05:56.351Z,30.69
2019-05-21T14:11:04.184Z,29.46
2019-05-21T14:16:11.896Z,28.41
2019-05-21T14:21:19.830Z,27.93
2019-05-21T14:26:27.724Z,27.53
2019-05-21T14:31:36.255Z,26.95
2019-05-21T14:36:43.617Z,26.55
2019-05-21T14:41:50.992Z,26.08
2019-05-21T14:46:58.367Z,25.65
2019-05-21T14:52:06.570Z,25.15
2019-05-21T14:57:14.000Z,24.99
2019-05-21T15:02:21.652Z,25.07
2019-05-21T15:07:29.070Z,25.26
2019-05-21T15:12:36.898Z,25.47
2019-05-21T15:17:44.896Z,25.39
2019-05-21T15:22:52.577Z,25.25
2019-05-21T15:28:00.031Z,25.17
2019-05-21T15:33:08.051Z,24.92
2019-05-21T15:38:15.479Z,24.64
2019-05-21T15:43:23.066Z,24.44
2019-05-21T15:48:30.505Z,24.11
2019-05-21T15:53:37.995Z,24.14
2019-05-21T15:58:45.363Z,24.31
2019-05-21T16:03:52.823Z,24.68
2019-05-21T16:09:00.382Z,25.02
2019-05-21T16:14:08.047Z,26.69
2019-05-21T16:19:18.231Z,26.47
2019-05-21T16:24:26.184Z,25.55
2019-05-21T16:29:39.689Z,24.81
2019-05-21T16:34:48.540Z,24.27
2019-05-21T16:39:56.391Z,24.04
2019-05-21T16:45:04.131Z,23.95
2019-05-21T16:50:13.443Z,23.91
2019-05-21T16:55:21.077Z,23.92
2019-05-21T17:00:29.708Z,23.83
2019-05-21T17:05:38.417Z,23.66
2019-05-21T17:10:46.386Z,23.60
2019-05-21T17:15:53.954Z,23.42
2019-05-21T17:21:02.893Z,23.20
2019-05-21T17:26:13.738Z,23.00
2019-05-21T17:31:21.759Z,22.80
2019-05-21T17:36:29.143Z,22.55
2019-05-21T17:41:36.731Z,22.42
2019-05-21T17:46:43.977Z,22.38
2019-05-21T17:51:51.329Z,22.19
2019-05-21T17:56:58.683Z,21.87
2019-05-21T18:02:08.045Z,21.67
2019-05-21T18:07:15.648Z,21.32
2019-05-21T18:12:31.601Z,21.04
2019-05-21T18:17:34.186Z,20.71
2019-05-21T18:22:43.790Z,20.43
2019-05-21T18:27:51.258Z,20.16
2019-05-21T18:32:59.217Z,19.92
2019-05-21T18:38:07.064Z,19.71
2019-05-21T18:43:14.697Z,19.49
2019-05-21T18:48:24.818Z,19.32
2019-05-21T18:53:32.747Z,19.13
2019-05-21T18:58:40.229Z,19.02
2019-05-21T19:03:47.822Z,18.90
2019-05-21T19:08:55.225Z,18.75
2019-05-21T19:14:02.726Z,18.68
2019-05-21T19:19:10.157Z,18.48
2019-05-21T19:24:18.074Z,18.47
2019-05-21T19:29:25.486Z,18.35
2019-05-21T19:34:32.952Z,18.32
2019-05-21T19:39:41.099Z,18.25
2019-05-21T19:44:49.367Z,18.40
2019-05-21T19:49:57.318Z,18.65
2019-05-21T19:55:05.132Z,18.83
2019-05-21T20:00:13.002Z,18.88
2019-05-21T20:05:20.663Z,18.95
2019-05-21T20:10:28.921Z,18.87
2019-05-21T20:15:37.298Z,18.88
2019-05-21T20:20:45.538Z,18.82
2019-05-21T20:25:56.784Z,18.76
2019-05-21T20:31:03.830Z,18.70
2019-05-21T20:36:11.293Z,18.68
2019-05-21T20:41:19.216Z,18.70
2019-05-21T20:46:28.253Z,18.64
2019-05-21T20:51:35.928Z,18.48
2019-05-21T20:56:43.676Z,18.28
2019-05-21T21:01:51.654Z,18.16
2019-05-21T21:06:59.244Z,18.16
2019-05-21T21:12:08.880Z,18.05
2019-05-21T21:17:17.290Z,18.06
2019-05-21T21:22:24.757Z,17.90
2019-05-21T21:27:33.296Z,17.92
2019-05-21T21:32:41.483Z,17.88
2019-05-21T21:37:49.105Z,17.84
2019-05-21T21:42:57.220Z,17.68
2019-05-21T21:48:05.577Z,17.65
2019-05-21T21:53:13.891Z,17.68
2019-05-21T21:58:21.450Z,17.78
2019-05-21T22:03:32.298Z,17.66
2019-05-21T22:08:39.850Z,17.56
2019-05-21T22:13:48.644Z,17.48
2019-05-21T22:18:57.294Z,17.47
2019-05-21T22:24:05.221Z,17.36
2019-05-21T22:29:12.819Z,17.34
2019-05-21T22:34:21.180Z,17.19
2019-05-21T22:39:30.746Z,17.18
2019-05-21T22:44:38.506Z,17.17
2019-05-21T22:49:45.838Z,17.12
2019-05-21T22:54:53.280Z,17.14
2019-05-21T23:00:00.834Z,17.11
2019-05-21T23:05:09.684Z,17.10
2019-05-21T23:10:20.057Z,17.02
2019-05-21T23:15:27.576Z,16.90
2019-05-21T23:20:54.442Z,16.85
2019-05-21T23:26:04.000Z,16.85
2019-05-21T23:31:11.418Z,16.89
2019-05-21T23:36:19.661Z,16.91
2019-05-21T23:41:28.870Z,16.94
2019-05-21T23:46:36.576Z,16.79
2019-05-21T23:51:45.145Z,16.76
2019-05-21T23:56:52.951Z,16.69
